Time;durP1;ratioP1;P1;durP2;ratioP2;P2;SDS_P1;SDS_P2;PMS_P1;PMS_P2;Temp;Humidity;BMP_temperature;BMP_pressure;BME280_temperature;BME280_humidity;BME280_pressure;Samples;Min_cycle;Max_cycle;Signal;HPM_P1;HPM_P2
2021/11/06 00:00:22;;;;;;;5.85;3.95;;;5.00;99.90;;;;;;5041802;28;20691;-66
2021/11/06 00:02:47;;;;;;;5.22;4.35;;;5.00;99.90;;;;;;5044680;28;20081;-67
2021/11/06 00:05:13;;;;;;;5.45;3.80;;;5.00;99.90;;;;;;5049192;28;20037;-67
2021/11/06 00:07:39;;;;;;;6.25;4.30;;;5.00;99.90;;;;;;5048278;28;20039;-67
2021/11/06 00:10:10;;;;;;;5.97;4.53;;;5.00;99.90;;;;;;5042631;28;20037;-67
2021/11/06 00:12:36;;;;;;;5.20;3.92;;;5.00;99.90;;;;;;5033765;28;20078;-67
2021/11/06 00:15:03;;;;;;;5.28;3.80;;;5.00;99.90;;;;;;5049819;28;20031;-66
2021/11/06 00:17:28;;;;;;;6.13;3.30;;;5.00;99.90;;;;;;5050767;28;20102;-67
2021/11/06 00:19:54;;;;;;;4.40;3.35;;;5.10;99.90;;;;;;5032794;28;20029;-67
2021/11/06 00:22:20;;;;;;;5.22;4.00;;;5.10;99.90;;;;;;5059148;28;20021;-66
2021/11/06 00:24:45;;;;;;;5.97;3.67;;;5.00;99.90;;;;;;5059677;28;20032;-66
2021/11/06 00:27:11;;;;;;;5.20;3.65;;;5.10;99.90;;;;;;5064077;28;20028;-67
2021/11/06 00:29:37;;;;;;;5.88;4.38;;;5.00;99.90;;;;;;5062365;28;20025;-67
2021/11/06 00:32:03;;;;;;;5.93;3.90;;;5.00;99.90;;;;;;5039391;28;20565;-67
2021/11/06 00:34:28;;;;;;;5.68;4.18;;;5.00;99.90;;;;;;5046480;28;20942;-67
2021/11/06 00:36:54;;;;;;;5.32;4.40;;;5.00;99.90;;;;;;5044562;28;20025;-67
2021/11/06 00:39:20;;;;;;;4.18;3.75;;;5.00;99.90;;;;;;5044195;28;20067;-67
2021/11/06 00:41:46;;;;;;;5.35;3.75;;;5.00;99.90;;;;;;5069087;28;20498;-67
2021/11/06 00:44:11;;;;;;;5.88;3.58;;;5.00;99.90;;;;;;5046483;28;20040;-68
2021/11/06 00:46:37;;;;;;;4.32;3.50;;;5.00;99.90;;;;;;5042657;28;20082;-67
2021/11/06 00:49:03;;;;;;;5.30;3.92;;;5.00;99.90;;;;;;5051042;28;20036;-70
2021/11/06 00:51:29;;;;;;;5.53;3.92;;;5.00;99.90;;;;;;5057606;28;20155;-67
2021/11/06 00:53:54;;;;;;;4.82;3.67;;;5.00;99.90;;;;;;5046953;28;20032;-67
2021/11/06 00:56:20;;;;;;;4.18;3.55;;;5.00;99.90;;;;;;5041011;28;20034;-67
2021/11/06 00:58:46;;;;;;;5.43;4.18;;;4.90;99.90;;;;;;5039839;28;20031;-68
2021/11/06 01:01:12;;;;;;;6.45;3.83;;;4.90;99.90;;;;;;5032144;28;20082;-67
2021/11/06 01:03:38;;;;;;;7.28;4.32;;;4.90;99.90;;;;;;5054595;28;20437;-67
2021/11/06 01:06:03;;;;;;;8.32;4.45;;;4.90;99.90;;;;;;5056289;28;20047;-67
2021/11/06 01:08:29;;;;;;;5.93;3.75;;;4.90;99.90;;;;;;5044491;28;20076;-67
2021/11/06 01:10:55;;;;;;;5.10;3.50;;;4.90;99.90;;;;;;5066765;28;20505;-67
2021/11/06 01:13:21;;;;;;;4.95;3.95;;;4.90;99.90;;;;;;5027618;28;20067;-67
2021/11/06 01:15:47;;;;;;;4.25;3.85;;;4.90;99.90;;;;;;5047924;28;20083;-67
2021/11/06 01:18:12;;;;;;;5.05;4.07;;;4.80;99.90;;;;;;5051141;28;20112;-67
2021/11/06 01:20:39;;;;;;;4.63;3.75;;;4.90;99.90;;;;;;5034509;28;21721;-67
2021/11/06 01:23:05;;;;;;;5.93;4.03;;;4.90;99.90;;;;;;5039568;28;20588;-67
2021/11/06 01:25:31;;;;;;;5.00;3.47;;;4.90;99.90;;;;;;5045342;28;20025;-67
2021/11/06 01:27:57;;;;;;;3.83;3.33;;;4.90;99.90;;;;;;5048249;28;20457;-67
2021/11/06 01:30:23;;;;;;;3.83;3.42;;;4.90;99.90;;;;;;5051012;28;20107;-67
2021/11/06 01:32:50;;;;;;;4.07;3.53;;;4.80;99.90;;;;;;5061790;28;20043;-67
2021/11/06 01:35:18;;;;;;;5.60;3.65;;;4.90;99.90;;;;;;5044216;28;20024;-67
2021/11/06 01:37:44;;;;;;;5.13;3.85;;;4.90;99.90;;;;;;5047968;28;20405;-67
2021/11/06 01:40:11;;;;;;;6.45;3.97;;;4.90;99.90;;;;;;5028727;28;20024;-67
2021/11/06 01:42:39;;;;;;;7.78;4.35;;;4.90;99.90;;;;;;5045251;28;20022;-67
2021/11/06 01:45:05;;;;;;;6.10;4.13;;;4.90;99.90;;;;;;5037177;28;20109;-67
2021/11/06 01:47:31;;;;;;;7.78;4.32;;;4.90;99.90;;;;;;5046447;28;20123;-67
2021/11/06 01:49:57;;;;;;;13.00;6.55;;;4.90;99.90;;;;;;5049103;28;20032;-66
2021/11/06 01:52:23;;;;;;;36.63;15.90;;;4.90;99.90;;;;;;5049444;28;20064;-67
2021/11/06 01:54:49;;;;;;;12.80;6.95;;;4.90;99.90;;;;;;5058583;28;20025;-67
2021/11/06 01:57:16;;;;;;;7.75;4.82;;;5.00;99.90;;;;;;5055008;28;20083;-68
2021/11/06 01:59:43;;;;;;;10.95;5.97;;;4.90;99.90;;;;;;5038484;28;20046;-66
2021/11/06 02:02:10;;;;;;;6.95;4.57;;;4.90;99.90;;;;;;5046848;28;20035;-67
2021/11/06 02:04:36;;;;;;;5.70;4.07;;;4.90;99.90;;;;;;5042563;28;20029;-67
2021/11/06 02:07:02;;;;;;;7.97;4.60;;;4.90;99.90;;;;;;5057094;28;20039;-67
2021/11/06 02:09:28;;;;;;;9.13;4.72;;;4.90;99.90;;;;;;5031926;28;20041;-67
2021/11/06 02:11:54;;;;;;;6.75;5.07;;;4.90;99.90;;;;;;5042947;28;21714;-67
2021/11/06 02:14:21;;;;;;;5.65;4.43;;;5.00;99.90;;;;;;5038280;28;20036;-67
2021/11/06 02:16:46;;;;;;;5.78;4.68;;;5.00;99.90;;;;;;5040570;28;21947;-67
2021/11/06 02:19:12;;;;;;;7.28;4.63;;;5.00;99.90;;;;;;5042170;28;20025;-67
2021/11/06 02:21:38;;;;;;;6.43;4.28;;;4.90;99.90;;;;;;5054692;28;20032;-67
2021/11/06 02:24:05;;;;;;;5.88;4.18;;;4.90;99.90;;;;;;5048847;28;20047;-67
2021/11/06 02:26:31;;;;;;;8.57;4.30;;;4.90;99.90;;;;;;5045093;28;20095;-67
2021/11/06 02:28:59;;;;;;;7.63;4.28;;;4.80;99.90;;;;;;5030049;28;20037;-67
2021/11/06 02:31:25;;;;;;;6.15;4.15;;;4.80;99.90;;;;;;5037054;28;20037;-67
2021/11/06 02:33:52;;;;;;;8.70;4.63;;;4.90;99.90;;;;;;5037281;28;20031;-67
2021/11/06 02:36:18;;;;;;;6.15;4.20;;;4.90;99.90;;;;;;5046783;28;20733;-67
2021/11/06 02:38:44;;;;;;;6.90;4.00;;;4.90;99.90;;;;;;5053126;28;20033;-66
2021/11/06 02:41:10;;;;;;;6.05;3.92;;;4.90;99.90;;;;;;5049771;28;20024;-67
2021/11/06 02:43:36;;;;;;;5.38;3.88;;;4.90;99.90;;;;;;5045431;28;20043;-67
2021/11/06 02:46:02;;;;;;;6.07;3.95;;;4.90;99.90;;;;;;5045581;28;20052;-66
2021/11/06 02:48:27;;;;;;;6.05;3.95;;;5.00;99.90;;;;;;5030311;28;20174;-67
2021/11/06 02:50:53;;;;;;;4.50;3.60;;;4.90;99.90;;;;;;5048375;28;20029;-67
2021/11/06 02:53:19;;;;;;;4.82;3.90;;;4.80;99.90;;;;;;5039216;28;20047;-67
2021/11/06 02:55:45;;;;;;;10.25;5.20;;;4.80;99.90;;;;;;5043798;28;20752;-67
2021/11/06 02:58:11;;;;;;;6.20;4.53;;;4.80;99.90;;;;;;5050836;28;20021;-66
2021/11/06 03:00:37;;;;;;;5.70;4.18;;;4.80;99.90;;;;;;5044947;28;20163;-67
2021/11/06 03:03:03;;;;;;;9.20;4.72;;;4.80;99.90;;;;;;5044351;28;20032;-67
2021/11/06 03:05:29;;;;;;;7.28;4.32;;;4.70;99.90;;;;;;5033232;28;21658;-68
2021/11/06 03:07:55;;;;;;;5.88;4.80;;;4.70;99.90;;;;;;5035165;28;20048;-68
2021/11/06 03:10:21;;;;;;;5.50;3.75;;;4.70;99.90;;;;;;5052002;28;20439;-67
2021/11/06 03:12:48;;;;;;;5.68;3.95;;;4.70;99.90;;;;;;5042843;28;20033;-67
2021/11/06 03:15:15;;;;;;;7.63;4.20;;;4.70;99.90;;;;;;5020396;28;20752;-67
2021/11/06 03:17:41;;;;;;;7.88;3.88;;;4.60;99.90;;;;;;5039167;28;20028;-67
2021/11/06 03:20:08;;;;;;;7.90;4.20;;;4.50;99.90;;;;;;5027218;28;20032;-66
2021/11/06 03:22:34;;;;;;;8.15;4.00;;;4.50;99.90;;;;;;5029176;28;20610;-67
2021/11/06 03:25:02;;;;;;;5.68;3.88;;;4.50;99.90;;;;;;5042046;28;20024;-67
2021/11/06 03:27:27;;;;;;;7.20;4.33;;;4.40;99.90;;;;;;5042665;28;20067;-67
2021/11/06 03:29:53;;;;;;;6.05;4.10;;;4.30;99.90;;;;;;5043843;28;20021;-67
2021/11/06 03:32:18;;;;;;;6.38;3.97;;;4.30;99.90;;;;;;5024318;28;20033;-67
2021/11/06 03:34:44;;;;;;;4.82;3.17;;;4.30;99.90;;;;;;5017416;28;20397;-67
2021/11/06 03:37:10;;;;;;;4.80;3.63;;;4.20;99.90;;;;;;5026192;28;20033;-67
2021/11/06 03:39:36;;;;;;;6.10;3.42;;;4.20;99.90;;;;;;5040151;28;20136;-67
2021/11/06 03:42:03;;;;;;;4.35;3.30;;;4.10;99.90;;;;;;5050128;28;20067;-67
2021/11/06 03:44:29;;;;;;;4.07;3.45;;;4.00;99.90;;;;;;5025619;28;20035;-67
2021/11/06 03:46:55;;;;;;;4.88;3.85;;;3.90;99.90;;;;;;5051089;28;20490;-67
2021/11/06 03:49:21;;;;;;;6.97;4.97;;;3.90;99.90;;;;;;5047235;28;20032;-67
2021/11/06 03:51:46;;;;;;;6.50;3.70;;;3.90;99.90;;;;;;5057047;28;20443;-67
2021/11/06 03:54:12;;;;;;;6.03;4.03;;;3.90;99.90;;;;;;5039674;28;20069;-67
2021/11/06 03:56:38;;;;;;;5.28;3.70;;;3.90;99.90;;;;;;5052451;28;20476;-67
2021/11/06 03:59:04;;;;;;;6.55;3.85;;;3.70;99.90;;;;;;5042592;28;20024;-67
2021/11/06 04:01:32;;;;;;;6.55;4.07;;;3.60;99.90;;;;;;5041798;28;20720;-67
2021/11/06 04:03:57;;;;;;;6.70;3.85;;;3.70;99.90;;;;;;5043755;28;20473;-67
2021/11/06 04:06:23;;;;;;;3.65;2.95;;;3.60;99.90;;;;;;5054535;28;20032;-67
2021/11/06 04:08:51;;;;;;;5.25;3.58;;;3.70;99.90;;;;;;5044647;28;20615;-67
2021/11/06 04:11:18;;;;;;;4.68;3.40;;;3.60;99.90;;;;;;5053004;28;20028;-67
2021/11/06 04:13:44;;;;;;;4.72;3.88;;;3.50;99.90;;;;;;5058900;28;20117;-67
2021/11/06 04:16:09;;;;;;;5.00;4.05;;;3.50;99.90;;;;;;5059792;28;20103;-67
2021/11/06 04:18:35;;;;;;;5.10;3.78;;;3.50;99.90;;;;;;5045644;28;20034;-67
2021/11/06 04:21:01;;;;;;;5.45;3.60;;;3.40;99.90;;;;;;5028689;28;20029;-67
2021/11/06 04:23:27;;;;;;;9.13;4.03;;;3.40;99.90;;;;;;5045953;28;20085;-67
2021/11/06 04:25:53;;;;;;;12.40;4.05;;;3.50;99.90;;;;;;5056996;28;20033;-66
2021/11/06 04:28:18;;;;;;;7.85;5.40;;;3.50;99.90;;;;;;5057785;28;20024;-67
2021/11/06 04:30:44;;;;;;;10.45;4.63;;;3.50;99.90;;;;;;5023912;28;20578;-67
2021/11/06 04:33:10;;;;;;;9.07;7.35;;;3.40;99.90;;;;;;5054886;28;20043;-67
2021/11/06 04:35:35;;;;;;;7.70;5.68;;;3.50;99.90;;;;;;5044226;28;20047;-67
2021/11/06 04:38:01;;;;;;;7.68;5.07;;;3.50;99.90;;;;;;5040405;28;20138;-67
2021/11/06 04:40:27;;;;;;;8.02;4.38;;;3.50;99.90;;;;;;5034763;28;20067;-67
2021/11/06 04:42:53;;;;;;;9.85;4.85;;;3.50;99.90;;;;;;5039550;28;20719;-67
2021/11/06 04:45:18;;;;;;;7.28;3.88;;;3.50;99.90;;;;;;5055221;28;20032;-66
2021/11/06 04:47:44;;;;;;;69.30;11.20;;;3.50;99.90;;;;;;5040283;28;20033;-67
2021/11/06 04:50:11;;;;;;;56.03;5.72;;;3.50;99.90;;;;;;5042758;28;20080;-66
2021/11/06 04:52:37;;;;;;;15.55;6.50;;;3.50;99.90;;;;;;5032210;28;20053;-67
2021/11/06 04:55:05;;;;;;;18.15;4.90;;;3.50;99.90;;;;;;5052095;28;20028;-66
2021/11/06 04:57:31;;;;;;;10.18;4.90;;;3.50;99.90;;;;;;5047443;28;20024;-67
2021/11/06 04:59:56;;;;;;;12.15;4.15;;;3.50;99.90;;;;;;5045689;28;20036;-66
2021/11/06 05:02:22;;;;;;;15.32;4.63;;;3.50;99.90;;;;;;5037463;28;20043;-66
2021/11/06 05:04:48;;;;;;;5.90;3.55;;;3.40;99.90;;;;;;5050283;28;20042;-66
2021/11/06 05:07:15;;;;;;;5.55;3.05;;;3.40;99.90;;;;;;5050952;28;20028;-67
2021/11/06 05:09:43;;;;;;;15.02;3.58;;;3.40;99.90;;;;;;5035845;28;20027;-67
2021/11/06 05:12:09;;;;;;;18.20;4.97;;;3.40;99.90;;;;;;5031629;28;20043;-67
2021/11/06 05:14:35;;;;;;;23.45;4.25;;;3.30;99.90;;;;;;5028160;28;20044;-67
2021/11/06 05:17:01;;;;;;;4.43;3.75;;;3.30;99.90;;;;;;5048733;28;20016;-67
2021/11/06 05:19:27;;;;;;;5.65;2.78;;;3.30;99.90;;;;;;5028375;28;20029;-67
2021/11/06 05:21:53;;;;;;;9.48;4.30;;;3.30;99.90;;;;;;5050980;28;20036;-67
2021/11/06 05:24:18;;;;;;;21.13;4.30;;;3.40;99.90;;;;;;5027366;28;20524;-66
2021/11/06 05:26:44;;;;;;;18.83;4.25;;;3.40;99.90;;;;;;5050491;28;20056;-67
2021/11/06 05:29:10;;;;;;;13.95;5.03;;;3.40;99.90;;;;;;5055528;28;20112;-67
2021/11/06 05:31:37;;;;;;;36.83;4.90;;;3.40;99.90;;;;;;5045474;28;20029;-67
2021/11/06 05:34:04;;;;;;;46.92;5.95;;;3.30;99.90;;;;;;5039913;28;20040;-67
2021/11/06 05:36:29;;;;;;;6.63;4.40;;;3.30;99.90;;;;;;5050995;28;20063;-66
2021/11/06 05:38:56;;;;;;;36.40;6.50;;;3.20;99.90;;;;;;5051445;28;20511;-67
2021/11/06 05:41:22;;;;;;;8.40;4.07;;;3.20;99.90;;;;;;5041565;28;20078;-67
2021/11/06 05:43:48;;;;;;;6.15;3.92;;;3.20;99.90;;;;;;5049932;28;20028;-67
2021/11/06 05:46:14;;;;;;;22.13;5.20;;;3.20;99.90;;;;;;5038737;28;20063;-67
2021/11/06 05:48:39;;;;;;;5.13;4.32;;;3.20;99.90;;;;;;5047250;28;20039;-67
2021/11/06 05:51:05;;;;;;;21.27;3.70;;;3.10;99.90;;;;;;5030780;28;20120;-66
2021/11/06 05:53:31;;;;;;;7.85;4.40;;;3.20;99.90;;;;;;5038374;28;20047;-67
2021/11/06 05:55:58;;;;;;;31.83;6.63;;;3.20;99.90;;;;;;5047358;28;20359;-66
2021/11/06 05:58:23;;;;;;;8.90;4.15;;;3.20;99.90;;;;;;5049743;28;20032;-67
2021/11/06 06:00:49;;;;;;;9.23;4.68;;;3.20;99.90;;;;;;5026727;28;20609;-67
2021/11/06 06:03:15;;;;;;;55.08;6.18;;;3.30;99.90;;;;;;5047435;28;20028;-67
2021/11/06 06:05:40;;;;;;;9.32;4.30;;;3.30;99.90;;;;;;5043608;28;20025;-67
2021/11/06 06:08:06;;;;;;;28.77;5.25;;;3.30;99.90;;;;;;5044153;28;20079;-67
2021/11/06 06:10:32;;;;;;;15.15;5.35;;;3.30;99.90;;;;;;5049471;28;20036;-66
2021/11/06 06:12:58;;;;;;;23.70;4.20;;;3.30;99.90;;;;;;5045207;28;20124;-67
2021/11/06 06:15:24;;;;;;;42.75;7.57;;;3.30;99.90;;;;;;5025113;28;20029;-67
2021/11/06 06:17:51;;;;;;;9.13;4.50;;;3.30;99.90;;;;;;5025484;28;20144;-67
2021/11/06 06:20:17;;;;;;;82.97;8.70;;;3.30;99.90;;;;;;5027517;28;20028;-68
2021/11/06 06:22:43;;;;;;;29.17;5.57;;;3.20;99.90;;;;;;5030876;28;20053;-67
2021/11/06 06:25:11;;;;;;;36.13;5.78;;;3.30;99.90;;;;;;5021801;28;21244;-67
2021/11/06 06:27:39;;;;;;;33.83;5.55;;;3.20;99.90;;;;;;5041050;28;20047;-67
2021/11/06 06:30:07;;;;;;;40.85;7.97;;;3.20;99.90;;;;;;5043362;28;20509;-67
2021/11/06 06:32:33;;;;;;;24.70;5.05;;;3.20;99.90;;;;;;5040925;28;20035;-66
2021/11/06 06:34:59;;;;;;;13.48;4.10;;;3.20;99.90;;;;;;5064508;28;20024;-67
2021/11/06 06:37:25;;;;;;;22.30;6.25;;;3.20;99.90;;;;;;5040740;28;20021;-66
2021/11/06 06:39:51;;;;;;;56.22;7.32;;;3.30;99.90;;;;;;5047450;28;20021;-66
2021/11/06 06:42:17;;;;;;;59.95;8.20;;;3.30;99.90;;;;;;5040293;28;20154;-67
2021/11/06 06:44:44;;;;;;;33.38;6.15;;;3.30;99.90;;;;;;5043071;28;20094;-66
2021/11/06 06:47:12;;;;;;;6.07;3.58;;;3.30;99.90;;;;;;5044523;28;20039;-67
2021/11/06 06:49:38;;;;;;;7.22;4.22;;;3.30;99.90;;;;;;5040348;28;20761;-67
2021/11/06 06:52:05;;;;;;;77.28;8.32;;;3.30;99.90;;;;;;5038162;28;20053;-67
2021/11/06 06:54:30;;;;;;;21.00;5.63;;;3.30;99.90;;;;;;5049143;28;20037;-67
2021/11/06 06:56:56;;;;;;;43.78;7.35;;;3.30;99.90;;;;;;5042717;28;20379;-67
2021/11/06 06:59:22;;;;;;;22.08;6.40;;;3.30;99.90;;;;;;5039737;28;20029;-67
2021/11/06 07:01:48;;;;;;;12.65;4.63;;;3.30;99.90;;;;;;5047889;28;20394;-67
2021/11/06 07:04:14;;;;;;;34.88;7.30;;;3.30;99.90;;;;;;5054054;28;20035;-67
2021/11/06 07:06:40;;;;;;;57.90;8.45;;;3.30;99.90;;;;;;5058737;28;20029;-66
2021/11/06 07:09:06;;;;;;;10.38;5.57;;;3.30;99.90;;;;;;5025988;28;20620;-67
2021/11/06 07:11:32;;;;;;;62.35;7.82;;;3.30;99.90;;;;;;5045881;28;20028;-67
2021/11/06 07:13:58;;;;;;;12.88;5.07;;;3.40;99.90;;;;;;5038924;28;20717;-67
2021/11/06 07:16:24;;;;;;;13.52;5.50;;;3.40;99.90;;;;;;5044804;28;20121;-67
2021/11/06 07:18:50;;;;;;;17.23;5.10;;;3.30;99.90;;;;;;5050567;28;20025;-66
2021/11/06 07:21:15;;;;;;;55.63;9.23;;;3.30;99.90;;;;;;5038508;28;20429;-66
2021/11/06 07:23:41;;;;;;;25.98;7.32;;;3.40;99.90;;;;;;5040872;28;20035;-67
2021/11/06 07:26:08;;;;;;;22.00;7.32;;;3.40;99.90;;;;;;5049195;28;20040;-67
2021/11/06 07:28:33;;;;;;;58.22;8.15;;;3.40;99.90;;;;;;5042630;28;20810;-66
2021/11/06 07:30:59;;;;;;;47.50;8.68;;;3.30;99.90;;;;;;5051373;28;20076;-67
2021/11/06 07:33:25;;;;;;;43.42;7.18;;;3.30;99.90;;;;;;5051580;28;20502;-66
2021/11/06 07:35:51;;;;;;;22.45;5.70;;;3.30;99.90;;;;;;5048853;28;20025;-67
2021/11/06 07:38:17;;;;;;;10.35;6.28;;;3.40;99.90;;;;;;5044872;28;20032;-67
2021/11/06 07:40:44;;;;;;;45.40;8.93;;;3.40;99.90;;;;;;5033297;28;20116;-67
2021/11/06 07:43:11;;;;;;;19.17;6.25;;;3.40;99.90;;;;;;5050892;28;20799;-67
2021/11/06 07:45:37;;;;;;;58.92;10.82;;;3.40;99.90;;;;;;5049392;28;20025;-67
2021/11/06 07:48:03;;;;;;;17.10;6.53;;;3.40;99.90;;;;;;5029714;28;20036;-67
2021/11/06 07:50:30;;;;;;;33.00;8.13;;;3.50;99.90;;;;;;5051683;28;20506;-66
2021/11/06 07:52:57;;;;;;;17.13;8.20;;;3.50;99.90;;;;;;5046281;28;20049;-67
2021/11/06 07:55:23;;;;;;;16.00;6.13;;;3.50;99.90;;;;;;5049266;28;20028;-67
2021/11/06 07:57:49;;;;;;;60.05;7.85;;;3.50;99.90;;;;;;5048868;28;20375;-66
2021/11/06 08:00:18;;;;;;;23.52;7.53;;;3.50;99.90;;;;;;5028002;28;20039;-67
2021/11/06 08:02:45;;;;;;;75.63;11.18;;;3.60;99.90;;;;;;5045553;28;20102;-67
2021/11/06 08:05:13;;;;;;;37.03;10.10;;;3.60;99.90;;;;;;5050757;28;20112;-67
2021/11/06 08:07:40;;;;;;;18.77;7.25;;;3.60;99.90;;;;;;5043765;28;20025;-67
2021/11/06 08:10:08;;;;;;;12.90;7.22;;;3.60;99.90;;;;;;5044505;28;20402;-67
2021/11/06 08:12:38;;;;;;;19.90;8.15;;;3.70;99.90;;;;;;5033420;28;20413;-67
2021/11/06 08:15:06;;;;;;;66.25;9.65;;;3.70;99.90;;;;;;5042855;28;20145;-67
2021/11/06 08:17:32;;;;;;;50.25;8.68;;;3.70;99.90;;;;;;5050660;28;20055;-67
2021/11/06 08:19:58;;;;;;;38.53;9.20;;;3.70;99.90;;;;;;5058700;28;20460;-67
2021/11/06 08:22:25;;;;;;;60.03;11.85;;;3.70;99.90;;;;;;5046824;28;20017;-67
2021/11/06 08:24:51;;;;;;;21.55;8.05;;;3.80;99.90;;;;;;5024267;28;20854;-67
2021/11/06 08:27:16;;;;;;;36.10;8.23;;;3.70;99.90;;;;;;5045500;28;20100;-67
2021/11/06 08:29:42;;;;;;;28.17;9.00;;;3.80;99.90;;;;;;5049097;28;20382;-67
2021/11/06 08:32:08;;;;;;;88.25;13.32;;;3.80;99.90;;;;;;5049402;28;20033;-67
2021/11/06 08:34:34;;;;;;;19.45;8.45;;;3.80;99.90;;;;;;5038781;28;20037;-67
2021/11/06 08:37:00;;;;;;;29.60;10.07;;;3.90;99.90;;;;;;5029722;28;20025;-68
2021/11/06 08:39:27;;;;;;;45.92;9.90;;;3.90;99.90;;;;;;5008129;28;20124;-67
2021/11/06 08:41:55;;;;;;;26.58;9.30;;;3.90;99.90;;;;;;5028873;28;20021;-67
2021/11/06 08:44:21;;;;;;;28.85;9.27;;;4.00;99.90;;;;;;5027344;28;20084;-67
2021/11/06 08:46:50;;;;;;;32.20;8.23;;;4.00;99.90;;;;;;5030772;28;20026;-67
2021/11/06 08:49:17;;;;;;;27.33;10.60;;;4.10;99.90;;;;;;5008048;28;20075;-68
2021/11/06 08:51:44;;;;;;;16.73;8.13;;;4.10;99.90;;;;;;5030521;28;20022;-68
2021/11/06 08:54:10;;;;;;;22.30;9.35;;;4.10;99.90;;;;;;5004157;28;20441;-68
2021/11/06 08:56:36;;;;;;;31.20;9.25;;;4.20;99.90;;;;;;5001602;28;20026;-67
2021/11/06 08:59:02;;;;;;;38.08;10.52;;;4.20;99.90;;;;;;5035652;28;20031;-68
2021/11/06 09:01:28;;;;;;;17.77;8.25;;;4.20;99.90;;;;;;5002966;28;20903;-68
2021/11/06 09:03:54;;;;;;;43.08;10.95;;;4.20;99.90;;;;;;4996954;28;20497;-68
2021/11/06 09:06:20;;;;;;;19.92;9.55;;;4.30;99.90;;;;;;5000868;28;20055;-68
2021/11/06 09:08:46;;;;;;;29.23;10.02;;;4.30;99.90;;;;;;5010408;28;20119;-67
2021/11/06 09:11:13;;;;;;;48.30;14.50;;;4.40;99.90;;;;;;5016540;28;20124;-67
2021/11/06 09:13:40;;;;;;;72.85;12.43;;;4.40;99.90;;;;;;5006645;28;20387;-67
2021/11/06 09:16:08;;;;;;;79.78;13.27;;;4.50;99.90;;;;;;4998144;28;20087;-67
2021/11/06 09:18:40;;;;;;;53.03;14.03;;;4.50;99.90;;;;;;5025646;28;20029;-67
2021/11/06 09:21:07;;;;;;;43.13;11.48;;;4.60;99.90;;;;;;5004567;28;20494;-68
2021/11/06 09:23:33;;;;;;;53.40;14.45;;;4.50;99.90;;;;;;5009981;28;20034;-68
2021/11/06 09:25:59;;;;;;;74.60;16.42;;;4.60;99.90;;;;;;4998934;28;20037;-68
2021/11/06 09:28:26;;;;;;;47.28;12.77;;;4.60;99.90;;;;;;5014485;28;20078;-68
2021/11/06 09:30:53;;;;;;;75.85;14.80;;;4.60;99.90;;;;;;5000787;28;20034;-69
2021/11/06 09:33:19;;;;;;;68.78;16.73;;;4.70;99.90;;;;;;5004805;28;20391;-68
2021/11/06 09:35:44;;;;;;;58.72;14.43;;;4.70;99.90;;;;;;5001265;28;20034;-67
2021/11/06 09:38:11;;;;;;;50.30;14.70;;;4.70;99.90;;;;;;5013232;28;20029;-68
2021/11/06 09:40:36;;;;;;;38.20;13.52;;;4.70;99.90;;;;;;5009794;28;20714;-67
2021/11/06 09:43:02;;;;;;;28.58;13.27;;;4.80;99.90;;;;;;4998335;28;20036;-68
2021/11/06 09:45:28;;;;;;;28.35;12.68;;;4.80;99.90;;;;;;5002251;28;20041;-67
2021/11/06 09:47:54;;;;;;;40.10;15.30;;;4.90;99.90;;;;;;5005117;28;20030;-68
2021/11/06 09:50:22;;;;;;;38.25;14.10;;;4.90;99.90;;;;;;5010743;28;20443;-67
2021/11/06 09:52:49;;;;;;;;;;;5.00;99.90;;;;;;5021079;28;20064;-68
2021/11/06 09:55:17;;;;;;;29.92;13.10;;;5.00;99.90;;;;;;5032313;28;19923;-68
2021/11/06 09:57:42;;;;;;;26.55;12.52;;;5.00;99.90;;;;;;5033767;28;20041;-68
2021/11/06 10:00:10;;;;;;;33.97;14.02;;;5.10;99.90;;;;;;5007557;28;20033;-68
2021/11/06 10:02:36;;;;;;;28.77;12.65;;;5.10;99.90;;;;;;5021151;28;20033;-68
2021/11/06 10:05:02;;;;;;;30.92;12.40;;;5.20;99.90;;;;;;5000504;28;20037;-68
2021/11/06 10:07:28;;;;;;;35.63;14.65;;;5.10;99.90;;;;;;5008564;28;20032;-68
2021/11/06 10:10:15;;;;;;;28.95;14.10;;;5.10;99.90;;;;;;5030348;28;20024;-68
2021/11/06 10:12:51;;;;;;;34.15;14.30;;;5.20;99.90;;;;;;5033455;28;20033;-67
2021/11/06 10:15:22;;;;;;;27.25;13.57;;;5.20;99.90;;;;;;5040029;28;20566;-68
2021/11/06 10:17:48;;;;;;;32.28;14.65;;;5.20;99.90;;;;;;5034153;28;20595;-68
2021/11/06 10:20:33;;;;;;;31.52;14.65;;;5.20;99.90;;;;;;5008144;28;20033;-68
2021/11/06 10:23:01;;;;;;;28.33;12.55;;;5.30;99.90;;;;;;5008444;28;20112;-68
2021/11/06 10:25:28;;;;;;;29.48;14.20;;;5.20;99.90;;;;;;5026942;28;20052;-68
2021/11/06 10:28:03;;;;;;;36.30;14.57;;;5.20;99.90;;;;;;5022727;28;20026;-68
2021/11/06 10:30:33;;;;;;;35.53;16.17;;;5.20;99.90;;;;;;5018854;28;20037;-68
2021/11/06 10:33:09;;;;;;;32.25;14.18;;;5.20;99.90;;;;;;5023956;28;20041;-68
2021/11/06 10:35:46;;;;;;;33.80;13.63;;;5.20;99.90;;;;;;5034694;28;20045;-68
2021/11/06 10:38:15;;;;;;;36.55;15.27;;;5.20;99.90;;;;;;5024808;28;20034;-68
2021/11/06 10:40:52;;;;;;;;;;;5.30;99.90;;;;;;5027681;28;20041;-68
2021/11/06 10:43:20;;;;;;;32.97;14.35;;;5.30;99.90;;;;;;5018334;28;20011;-68
2021/11/06 10:45:49;;;;;;;25.73;13.73;;;5.40;99.90;;;;;;5033270;28;20025;-68
2021/11/06 10:48:17;;;;;;;;;;;5.50;99.90;;;;;;5026004;28;20045;-68
2021/11/06 10:50:58;;;;;;;31.70;14.13;;;5.50;99.90;;;;;;5019372;28;19912;-68
2021/11/06 10:53:30;;;;;;;32.10;15.00;;;5.50;99.90;;;;;;5035828;28;20714;-68
2021/11/06 10:55:57;;;;;;;30.65;14.55;;;5.60;99.90;;;;;;5036500;28;20021;-67
2021/11/06 10:58:31;;;;;;;31.73;14.68;;;5.60;99.90;;;;;;5029174;28;20021;-68
2021/11/06 11:01:00;;;;;;;31.65;15.05;;;5.60;99.90;;;;;;5010023;28;20033;-68
2021/11/06 11:03:46;;;;;;;34.95;15.43;;;5.60;99.90;;;;;;5026198;28;20087;-68
2021/11/06 11:06:19;;;;;;;35.13;15.10;;;5.70;99.90;;;;;;5026708;28;20397;-67
2021/11/06 11:08:48;;;;;;;30.42;13.00;;;5.70;99.90;;;;;;5025446;28;20039;-67
2021/11/06 11:11:19;;;;;;;33.38;15.13;;;5.70;99.90;;;;;;5015474;28;20390;-67
2021/11/06 11:13:49;;;;;;;25.95;13.23;;;5.70;99.90;;;;;;5025039;28;20037;-67
2021/11/06 11:16:16;;;;;;;31.70;12.98;;;5.70;99.90;;;;;;5031596;28;20029;-66
2021/11/06 11:18:47;;;;;;;29.33;12.80;;;5.70;99.90;;;;;;5032590;28;20159;-66
2021/11/06 11:21:16;;;;;;;37.08;15.73;;;5.70;99.90;;;;;;5033955;28;20029;-67
2021/11/06 11:23:46;;;;;;;34.55;15.13;;;5.80;99.90;;;;;;5034497;28;20037;-67
2021/11/06 11:26:14;;;;;;;35.15;13.57;;;5.80;99.90;;;;;;5013043;28;20035;-67
2021/11/06 11:28:41;;;;;;;31.13;13.52;;;5.80;99.90;;;;;;5024880;28;20029;-67
2021/11/06 11:31:07;;;;;;;33.97;13.93;;;5.80;99.90;;;;;;5021327;28;20277;-66
2021/11/06 11:33:37;;;;;;;34.40;13.38;;;5.80;99.90;;;;;;5030614;28;20034;-67
2021/11/06 11:36:06;;;;;;;29.30;13.07;;;5.80;99.90;;;;;;5057192;28;20559;-67
2021/11/06 11:38:32;;;;;;;;;;;5.80;99.90;;;;;;5033623;28;20029;-67
2021/11/06 11:41:14;;;;;;;30.55;13.52;;;5.80;99.90;;;;;;5039087;28;19917;-67
2021/11/06 11:44:08;;;;;;;31.75;14.13;;;5.90;99.90;;;;;;5036466;28;20116;-67
2021/11/06 11:46:43;;;;;;;31.73;13.38;;;5.80;99.90;;;;;;5031704;28;20044;-67
2021/11/06 11:49:09;;;;;;;33.70;14.93;;;5.90;99.90;;;;;;5013546;28;20032;-67
2021/11/06 11:51:35;;;;;;;35.08;15.40;;;5.90;99.90;;;;;;5028576;28;20021;-67
2021/11/06 11:54:06;;;;;;;30.77;14.65;;;5.90;99.90;;;;;;5028898;28;20399;-67
2021/11/06 11:56:33;;;;;;;29.42;12.98;;;5.90;99.90;;;;;;5036697;28;20048;-67
2021/11/06 11:59:03;;;;;;;37.83;15.45;;;5.90;99.90;;;;;;5010026;28;20036;-67
2021/11/06 12:01:29;;;;;;;34.55;14.98;;;5.90;99.90;;;;;;5043613;28;20036;-68
2021/11/06 12:03:57;;;;;;;35.70;15.77;;;5.90;99.90;;;;;;5029867;28;20398;-67
2021/11/06 12:06:31;;;;;;;32.35;15.20;;;6.00;99.90;;;;;;5022354;28;20111;-66
2021/11/06 12:09:24;;;;;;;29.95;13.98;;;6.00;99.90;;;;;;5008036;28;20033;-67
2021/11/06 12:11:51;;;;;;;35.17;14.95;;;6.00;99.90;;;;;;5007059;28;20042;-66
2021/11/06 12:14:28;;;;;;;31.10;13.95;;;6.10;99.90;;;;;;5023790;28;20134;-67
2021/11/06 12:16:57;;;;;;;29.23;14.13;;;6.20;99.90;;;;;;5030591;28;20087;-67
2021/11/06 12:19:50;;;;;;;37.58;13.65;;;6.10;99.90;;;;;;5039240;28;20028;-67
2021/11/06 12:22:26;;;;;;;29.25;14.48;;;6.20;99.90;;;;;;5030280;28;20034;-67
2021/11/06 12:25:11;;;;;;;28.00;13.27;;;6.30;99.90;;;;;;5030167;28;20119;-68
2021/11/06 12:27:37;;;;;;;30.75;13.32;;;6.40;99.90;;;;;;5014642;28;20025;-67
2021/11/06 12:30:03;;;;;;;27.30;13.57;;;6.40;99.90;;;;;;5010629;28;20033;-67
2021/11/06 12:32:35;;;;;;;28.52;13.20;;;6.40;99.90;;;;;;5033104;28;20041;-67
2021/11/06 12:35:17;;;;;;;28.98;14.35;;;6.50;99.90;;;;;;5036026;28;20051;-67
2021/11/06 12:37:48;;;;;;;27.48;13.23;;;6.50;99.90;;;;;;5027533;28;20378;-66
2021/11/06 12:40:14;;;;;;;31.80;14.63;;;6.60;99.90;;;;;;5002590;28;20029;-67
2021/11/06 12:43:01;;;;;;;28.80;13.07;;;6.60;99.90;;;;;;5019926;28;20031;-67
2021/11/06 12:45:28;;;;;;;37.40;14.75;;;6.60;99.90;;;;;;5024096;28;20026;-67
2021/11/06 12:48:08;;;;;;;29.95;13.77;;;6.60;99.90;;;;;;5022294;28;20080;-68